sensor_id;sensor_type;location;lat;lon;timestamp;temperature;humidity
2907;DHT22;1463;51.070;16.998;2022-08-04T00:00:56;23.40;98.10
2907;DHT22;1463;51.070;16.998;2022-08-04T00:03:27;23.30;98.40
2907;DHT22;1463;51.070;16.998;2022-08-04T00:05:59;23.30;98.60
2907;DHT22;1463;51.070;16.998;2022-08-04T00:08:32;23.30;99.10
2907;DHT22;1463;51.070;16.998;2022-08-04T00:11:00;23.20;99.40
2907;DHT22;1463;51.070;16.998;2022-08-04T00:13:29;23.20;99.70
2907;DHT22;1463;51.070;16.998;2022-08-04T00:16:05;23.10;99.90
2907;DHT22;1463;51.070;16.998;2022-08-04T00:18:33;23.10;99.90
2907;DHT22;1463;51.070;16.998;2022-08-04T00:21:03;23.20;99.90
2907;DHT22;1463;51.070;16.998;2022-08-04T00:23:31;23.10;99.90
2907;DHT22;1463;51.070;16.998;2022-08-04T00:26:00;23.10;99.90
2907;DHT22;1463;51.070;16.998;2022-08-04T00:28:28;23.00;99.90
2907;DHT22;1463;51.070;16.998;2022-08-04T00:30:55;23.00;99.90
2907;DHT22;1463;51.070;16.998;2022-08-04T00:33:24;23.00;99.90
2907;DHT22;1463;51.070;16.998;2022-08-04T00:35:52;23.00;99.90
2907;DHT22;1463;51.070;16.998;2022-08-04T00:38:21;23.00;99.90
2907;DHT22;1463;51.070;16.998;2022-08-04T00:40:52;22.90;99.90
2907;DHT22;1463;51.070;16.998;2022-08-04T00:43:29;22.90;99.90
2907;DHT22;1463;51.070;16.998;2022-08-04T00:46:21;22.90;99.90
2907;DHT22;1463;51.070;16.998;2022-08-04T00:49:10;22.90;99.90
2907;DHT22;1463;51.070;16.998;2022-08-04T00:51:45;22.90;99.90
2907;DHT22;1463;51.070;16.998;2022-08-04T00:54:16;22.90;99.90
2907;DHT22;1463;51.070;16.998;2022-08-04T00:59:37;22.80;99.90
2907;DHT22;1463;51.070;16.998;2022-08-04T01:02:16;22.70;99.90
2907;DHT22;1463;51.070;16.998;2022-08-04T01:04:48;22.70;99.90
2907;DHT22;1463;51.070;16.998;2022-08-04T01:07:26;22.70;99.90
2907;DHT22;1463;51.070;16.998;2022-08-04T01:10:00;22.70;99.90
2907;DHT22;1463;51.070;16.998;2022-08-04T01:12:35;22.60;99.90
2907;DHT22;1463;51.070;16.998;2022-08-04T01:15:09;22.60;99.90
2907;DHT22;1463;51.070;16.998;2022-08-04T01:17:42;22.60;99.90
2907;DHT22;1463;51.070;16.998;2022-08-04T01:20:19;22.60;99.90
2907;DHT22;1463;51.070;16.998;2022-08-04T01:25:40;22.60;99.90
2907;DHT22;1463;51.070;16.998;2022-08-04T01:28:19;22.60;99.90
2907;DHT22;1463;51.070;16.998;2022-08-04T01:30:54;22.50;99.90
2907;DHT22;1463;51.070;16.998;2022-08-04T01:33:22;22.50;99.90
2907;DHT22;1463;51.070;16.998;2022-08-04T01:35:55;22.40;99.90
2907;DHT22;1463;51.070;16.998;2022-08-04T01:38:24;22.40;99.90
2907;DHT22;1463;51.070;16.998;2022-08-04T01:41:02;22.40;99.90
2907;DHT22;1463;51.070;16.998;2022-08-04T01:43:31;22.40;99.90
2907;DHT22;1463;51.070;16.998;2022-08-04T01:46:02;22.40;99.90
2907;DHT22;1463;51.070;16.998;2022-08-04T01:48:30;22.40;99.90
2907;DHT22;1463;51.070;16.998;2022-08-04T01:51:00;22.40;99.90
2907;DHT22;1463;51.070;16.998;2022-08-04T01:53:30;22.30;99.90
2907;DHT22;1463;51.070;16.998;2022-08-04T01:55:58;22.30;99.90
2907;DHT22;1463;51.070;16.998;2022-08-04T01:58:27;22.30;99.90
2907;DHT22;1463;51.070;16.998;2022-08-04T02:00:56;22.20;99.90
2907;DHT22;1463;51.070;16.998;2022-08-04T02:03:25;22.20;99.90
2907;DHT22;1463;51.070;16.998;2022-08-04T02:05:53;22.20;99.90
2907;DHT22;1463;51.070;16.998;2022-08-04T02:08:26;22.10;99.90
2907;DHT22;1463;51.070;16.998;2022-08-04T02:10:56;22.10;99.90
2907;DHT22;1463;51.070;16.998;2022-08-04T02:13:32;22.10;99.90
2907;DHT22;1463;51.070;16.998;2022-08-04T02:16:03;22.10;99.90
2907;DHT22;1463;51.070;16.998;2022-08-04T02:18:33;22.10;99.90
2907;DHT22;1463;51.070;16.998;2022-08-04T02:21:06;22.10;99.90
2907;DHT22;1463;51.070;16.998;2022-08-04T02:23:35;22.00;99.90
2907;DHT22;1463;51.070;16.998;2022-08-04T02:26:02;22.00;99.90
2907;DHT22;1463;51.070;16.998;2022-08-04T02:28:33;22.00;99.90
2907;DHT22;1463;51.070;16.998;2022-08-04T02:31:09;22.00;99.90
2907;DHT22;1463;51.070;16.998;2022-08-04T02:33:42;21.90;99.90
2907;DHT22;1463;51.070;16.998;2022-08-04T02:36:11;21.90;99.90
2907;DHT22;1463;51.070;16.998;2022-08-04T02:38:42;21.90;99.90
2907;DHT22;1463;51.070;16.998;2022-08-04T02:41:14;21.80;99.90
2907;DHT22;1463;51.070;16.998;2022-08-04T02:43:42;21.80;99.90
2907;DHT22;1463;51.070;16.998;2022-08-04T02:46:13;21.80;99.90
2907;DHT22;1463;51.070;16.998;2022-08-04T02:48:44;21.80;99.90
2907;DHT22;1463;51.070;16.998;2022-08-04T02:51:14;21.80;99.90
2907;DHT22;1463;51.070;16.998;2022-08-04T02:53:41;21.80;99.90
2907;DHT22;1463;51.070;16.998;2022-08-04T02:56:09;21.70;99.90
2907;DHT22;1463;51.070;16.998;2022-08-04T02:58:37;21.70;99.90
2907;DHT22;1463;51.070;16.998;2022-08-04T03:01:08;21.70;99.90
2907;DHT22;1463;51.070;16.998;2022-08-04T03:03:37;21.60;99.90
2907;DHT22;1463;51.070;16.998;2022-08-04T03:06:27;21.50;99.90
2907;DHT22;1463;51.070;16.998;2022-08-04T03:14:56;21.30;99.90
2907;DHT22;1463;51.070;16.998;2022-08-04T03:23:10;21.20;99.90
2907;DHT22;1463;51.070;16.998;2022-08-04T03:31:29;21.20;99.90
2907;DHT22;1463;51.070;16.998;2022-08-04T03:34:02;21.20;99.90
2907;DHT22;1463;51.070;16.998;2022-08-04T03:37:01;21.10;99.90
2907;DHT22;1463;51.070;16.998;2022-08-04T03:45:10;21.20;99.90
2907;DHT22;1463;51.070;16.998;2022-08-04T03:47:48;21.10;99.90
2907;DHT22;1463;51.070;16.998;2022-08-04T03:55:45;21.10;99.90
2907;DHT22;1463;51.070;16.998;2022-08-04T03:58:32;21.10;99.90
2907;DHT22;1463;51.070;16.998;2022-08-04T04:01:08;21.10;99.90
2907;DHT22;1463;51.070;16.998;2022-08-04T04:03:45;21.10;99.90
2907;DHT22;1463;51.070;16.998;2022-08-04T04:09:11;21.10;99.90
2907;DHT22;1463;51.070;16.998;2022-08-04T04:11:50;21.20;99.90
2907;DHT22;1463;51.070;16.998;2022-08-04T04:14:27;21.20;99.90
2907;DHT22;1463;51.070;16.998;2022-08-04T04:19:53;21.10;99.90
2907;DHT22;1463;51.070;16.998;2022-08-04T04:22:28;21.10;99.90
2907;DHT22;1463;51.070;16.998;2022-08-04T04:25:02;21.00;99.90
2907;DHT22;1463;51.070;16.998;2022-08-04T04:27:46;20.90;99.90
2907;DHT22;1463;51.070;16.998;2022-08-04T04:30:22;21.00;99.90
2907;DHT22;1463;51.070;16.998;2022-08-04T04:33:02;20.90;99.90
2907;DHT22;1463;51.070;16.998;2022-08-04T04:35:34;21.00;99.90
2907;DHT22;1463;51.070;16.998;2022-08-04T04:38:14;20.90;99.90
2907;DHT22;1463;51.070;16.998;2022-08-04T04:40:50;21.00;99.90
2907;DHT22;1463;51.070;16.998;2022-08-04T04:43:27;21.00;99.90
2907;DHT22;1463;51.070;16.998;2022-08-04T04:45:57;21.10;99.90
2907;DHT22;1463;51.070;16.998;2022-08-04T04:48:30;21.10;99.90
2907;DHT22;1463;51.070;16.998;2022-08-04T04:51:07;21.10;99.90
2907;DHT22;1463;51.070;16.998;2022-08-04T04:53:41;21.10;99.90
2907;DHT22;1463;51.070;16.998;2022-08-04T04:56:13;21.10;99.90
2907;DHT22;1463;51.070;16.998;2022-08-04T04:58:41;21.10;99.90
2907;DHT22;1463;51.070;16.998;2022-08-04T05:01:25;21.10;99.90
2907;DHT22;1463;51.070;16.998;2022-08-04T05:04:10;21.10;99.90
2907;DHT22;1463;51.070;16.998;2022-08-04T05:06:48;21.10;99.90
2907;DHT22;1463;51.070;16.998;2022-08-04T05:09:23;21.10;99.90
2907;DHT22;1463;51.070;16.998;2022-08-04T05:14:43;21.20;99.90
2907;DHT22;1463;51.070;16.998;2022-08-04T05:17:14;21.20;99.90
2907;DHT22;1463;51.070;16.998;2022-08-04T05:19:44;21.30;99.90
2907;DHT22;1463;51.070;16.998;2022-08-04T05:22:21;21.30;99.90
2907;DHT22;1463;51.070;16.998;2022-08-04T05:24:51;21.40;99.90
2907;DHT22;1463;51.070;16.998;2022-08-04T05:27:21;21.30;99.90
2907;DHT22;1463;51.070;16.998;2022-08-04T05:29:53;21.40;99.90
2907;DHT22;1463;51.070;16.998;2022-08-04T05:32:22;21.40;99.90
2907;DHT22;1463;51.070;16.998;2022-08-04T05:34:51;21.40;99.90
2907;DHT22;1463;51.070;16.998;2022-08-04T05:37:23;21.40;99.90
2907;DHT22;1463;51.070;16.998;2022-08-04T05:39:53;21.40;99.90
2907;DHT22;1463;51.070;16.998;2022-08-04T05:42:21;21.50;99.90
2907;DHT22;1463;51.070;16.998;2022-08-04T05:44:49;21.60;99.90
2907;DHT22;1463;51.070;16.998;2022-08-04T05:47:16;21.60;99.90
2907;DHT22;1463;51.070;16.998;2022-08-04T05:49:45;21.70;99.90
2907;DHT22;1463;51.070;16.998;2022-08-04T05:52:13;21.80;99.90
2907;DHT22;1463;51.070;16.998;2022-08-04T05:54:42;21.90;99.90
2907;DHT22;1463;51.070;16.998;2022-08-04T05:57:09;21.90;99.90
2907;DHT22;1463;51.070;16.998;2022-08-04T05:59:37;21.90;99.90
2907;DHT22;1463;51.070;16.998;2022-08-04T06:02:05;22.00;99.90
2907;DHT22;1463;51.070;16.998;2022-08-04T06:04:34;22.10;99.90
2907;DHT22;1463;51.070;16.998;2022-08-04T06:07:03;22.10;99.90
2907;DHT22;1463;51.070;16.998;2022-08-04T06:09:30;22.20;99.90
2907;DHT22;1463;51.070;16.998;2022-08-04T06:12:00;22.30;99.90
2907;DHT22;1463;51.070;16.998;2022-08-04T06:14:28;22.40;99.90
2907;DHT22;1463;51.070;16.998;2022-08-04T06:16:58;22.50;99.90
2907;DHT22;1463;51.070;16.998;2022-08-04T06:19:25;22.50;99.90
2907;DHT22;1463;51.070;16.998;2022-08-04T06:21:54;22.50;99.90
2907;DHT22;1463;51.070;16.998;2022-08-04T06:24:23;22.60;99.90
2907;DHT22;1463;51.070;16.998;2022-08-04T06:26:50;22.60;99.90
2907;DHT22;1463;51.070;16.998;2022-08-04T06:29:20;22.70;99.90
2907;DHT22;1463;51.070;16.998;2022-08-04T06:31:51;22.80;99.90
2907;DHT22;1463;51.070;16.998;2022-08-04T06:34:29;22.90;99.90
2907;DHT22;1463;51.070;16.998;2022-08-04T06:36:57;22.90;99.90
2907;DHT22;1463;51.070;16.998;2022-08-04T06:39:24;23.00;99.90
2907;DHT22;1463;51.070;16.998;2022-08-04T06:41:53;23.10;99.90
2907;DHT22;1463;51.070;16.998;2022-08-04T06:44:22;23.30;99.90
2907;DHT22;1463;51.070;16.998;2022-08-04T06:46:50;23.30;99.90
2907;DHT22;1463;51.070;16.998;2022-08-04T06:49:18;23.40;99.90
2907;DHT22;1463;51.070;16.998;2022-08-04T06:51:47;23.50;99.90
2907;DHT22;1463;51.070;16.998;2022-08-04T06:54:16;23.60;99.90
2907;DHT22;1463;51.070;16.998;2022-08-04T06:56:43;23.60;99.90
2907;DHT22;1463;51.070;16.998;2022-08-04T06:59:11;23.60;99.90
2907;DHT22;1463;51.070;16.998;2022-08-04T07:01:41;23.70;99.90
2907;DHT22;1463;51.070;16.998;2022-08-04T07:04:09;23.70;99.90
2907;DHT22;1463;51.070;16.998;2022-08-04T07:06:36;23.90;99.90
2907;DHT22;1463;51.070;16.998;2022-08-04T07:09:04;23.90;99.90
2907;DHT22;1463;51.070;16.998;2022-08-04T07:11:32;24.00;99.90
2907;DHT22;1463;51.070;16.998;2022-08-04T07:13:59;24.10;99.90
2907;DHT22;1463;51.070;16.998;2022-08-04T07:16:26;24.20;99.90
2907;DHT22;1463;51.070;16.998;2022-08-04T07:18:55;24.30;99.90
2907;DHT22;1463;51.070;16.998;2022-08-04T07:21:22;24.40;99.90
2907;DHT22;1463;51.070;16.998;2022-08-04T07:23:53;24.50;99.90
2907;DHT22;1463;51.070;16.998;2022-08-04T07:26:25;24.60;99.90
2907;DHT22;1463;51.070;16.998;2022-08-04T07:28:52;24.70;99.90
2907;DHT22;1463;51.070;16.998;2022-08-04T07:31:21;24.80;99.90
2907;DHT22;1463;51.070;16.998;2022-08-04T07:33:52;24.90;99.90
2907;DHT22;1463;51.070;16.998;2022-08-04T07:36:21;25.00;99.90
2907;DHT22;1463;51.070;16.998;2022-08-04T07:38:48;25.00;99.90
2907;DHT22;1463;51.070;16.998;2022-08-04T07:41:17;25.20;99.90
2907;DHT22;1463;51.070;16.998;2022-08-04T07:43:45;25.30;99.90
2907;DHT22;1463;51.070;16.998;2022-08-04T07:46:12;25.40;99.90
2907;DHT22;1463;51.070;16.998;2022-08-04T07:48:39;25.40;99.90
2907;DHT22;1463;51.070;16.998;2022-08-04T07:51:06;25.60;99.90
2907;DHT22;1463;51.070;16.998;2022-08-04T07:53:35;25.70;99.90
2907;DHT22;1463;51.070;16.998;2022-08-04T07:56:03;25.80;99.90
2907;DHT22;1463;51.070;16.998;2022-08-04T07:58:30;25.90;99.90
2907;DHT22;1463;51.070;16.998;2022-08-04T08:00:57;26.00;99.90
2907;DHT22;1463;51.070;16.998;2022-08-04T08:03:25;26.10;99.90
2907;DHT22;1463;51.070;16.998;2022-08-04T08:05:52;26.20;99.90
2907;DHT22;1463;51.070;16.998;2022-08-04T08:08:19;26.30;99.10
2907;DHT22;1463;51.070;16.998;2022-08-04T08:10:48;26.30;99.70
2907;DHT22;1463;51.070;16.998;2022-08-04T08:13:16;26.40;98.10
2907;DHT22;1463;51.070;16.998;2022-08-04T08:15:44;26.50;96.70
2907;DHT22;1463;51.070;16.998;2022-08-04T08:18:11;26.50;96.40
2907;DHT22;1463;51.070;16.998;2022-08-04T08:20:38;26.60;96.80
2907;DHT22;1463;51.070;16.998;2022-08-04T08:23:06;26.70;96.60
2907;DHT22;1463;51.070;16.998;2022-08-04T08:25:33;26.80;95.70
2907;DHT22;1463;51.070;16.998;2022-08-04T08:28:03;26.90;96.00
2907;DHT22;1463;51.070;16.998;2022-08-04T08:30:31;27.00;95.70
2907;DHT22;1463;51.070;16.998;2022-08-04T08:33:03;27.10;96.90
2907;DHT22;1463;51.070;16.998;2022-08-04T08:35:33;27.20;95.00
2907;DHT22;1463;51.070;16.998;2022-08-04T08:38:01;27.30;92.70
2907;DHT22;1463;51.070;16.998;2022-08-04T08:40:32;27.40;90.20
2907;DHT22;1463;51.070;16.998;2022-08-04T08:43:09;27.50;90.60
2907;DHT22;1463;51.070;16.998;2022-08-04T08:45:49;27.60;89.10
2907;DHT22;1463;51.070;16.998;2022-08-04T08:48:32;27.60;90.20
2907;DHT22;1463;51.070;16.998;2022-08-04T08:51:13;27.70;91.40
2907;DHT22;1463;51.070;16.998;2022-08-04T08:53:53;27.70;91.80
2907;DHT22;1463;51.070;16.998;2022-08-04T08:56:26;27.80;92.30
2907;DHT22;1463;51.070;16.998;2022-08-04T08:59:14;27.90;91.00
2907;DHT22;1463;51.070;16.998;2022-08-04T09:01:48;28.10;89.30
2907;DHT22;1463;51.070;16.998;2022-08-04T09:04:24;28.20;87.00
2907;DHT22;1463;51.070;16.998;2022-08-04T09:07:05;28.20;86.40
2907;DHT22;1463;51.070;16.998;2022-08-04T09:09:40;28.30;85.90
2907;DHT22;1463;51.070;16.998;2022-08-04T09:12:13;28.30;87.70
2907;DHT22;1463;51.070;16.998;2022-08-04T09:14:44;28.30;88.50
2907;DHT22;1463;51.070;16.998;2022-08-04T09:17:17;28.40;85.80
2907;DHT22;1463;51.070;16.998;2022-08-04T09:19:48;28.50;84.60
2907;DHT22;1463;51.070;16.998;2022-08-04T09:22:18;28.60;85.70
2907;DHT22;1463;51.070;16.998;2022-08-04T09:24:47;28.80;83.40
2907;DHT22;1463;51.070;16.998;2022-08-04T09:27:17;28.90;83.00
2907;DHT22;1463;51.070;16.998;2022-08-04T09:29:49;29.00;79.50
2907;DHT22;1463;51.070;16.998;2022-08-04T09:32:22;29.00;76.70
2907;DHT22;1463;51.070;16.998;2022-08-04T09:34:55;29.00;75.10
2907;DHT22;1463;51.070;16.998;2022-08-04T09:37:24;29.10;75.50
2907;DHT22;1463;51.070;16.998;2022-08-04T09:40:02;29.20;73.70
2907;DHT22;1463;51.070;16.998;2022-08-04T09:42:34;29.30;73.60
2907;DHT22;1463;51.070;16.998;2022-08-04T09:45:08;29.30;72.50
2907;DHT22;1463;51.070;16.998;2022-08-04T09:47:37;29.30;71.50
2907;DHT22;1463;51.070;16.998;2022-08-04T09:50:09;29.30;72.70
2907;DHT22;1463;51.070;16.998;2022-08-04T09:52:40;29.30;72.60
2907;DHT22;1463;51.070;16.998;2022-08-04T09:55:12;29.40;72.00
2907;DHT22;1463;51.070;16.998;2022-08-04T09:57:50;29.40;72.70
2907;DHT22;1463;51.070;16.998;2022-08-04T10:00:19;29.40;71.10
2907;DHT22;1463;51.070;16.998;2022-08-04T10:02:48;29.40;73.30
2907;DHT22;1463;51.070;16.998;2022-08-04T10:05:19;29.50;74.60
2907;DHT22;1463;51.070;16.998;2022-08-04T10:07:50;29.50;73.60
2907;DHT22;1463;51.070;16.998;2022-08-04T10:10:26;29.60;72.70
2907;DHT22;1463;51.070;16.998;2022-08-04T10:13:11;29.50;72.20
2907;DHT22;1463;51.070;16.998;2022-08-04T10:15:42;29.60;72.10
2907;DHT22;1463;51.070;16.998;2022-08-04T10:18:14;29.60;70.90
2907;DHT22;1463;51.070;16.998;2022-08-04T10:23:37;29.70;71.60
2907;DHT22;1463;51.070;16.998;2022-08-04T10:26:14;29.70;72.80
2907;DHT22;1463;51.070;16.998;2022-08-04T10:28:48;29.80;70.70
2907;DHT22;1463;51.070;16.998;2022-08-04T10:31:19;29.90;69.90
2907;DHT22;1463;51.070;16.998;2022-08-04T10:33:49;30.00;68.60
2907;DHT22;1463;51.070;16.998;2022-08-04T10:36:18;30.00;69.10
2907;DHT22;1463;51.070;16.998;2022-08-04T10:38:49;30.10;69.40
2907;DHT22;1463;51.070;16.998;2022-08-04T10:41:21;30.10;68.30
2907;DHT22;1463;51.070;16.998;2022-08-04T10:43:50;30.20;67.60
2907;DHT22;1463;51.070;16.998;2022-08-04T10:46:22;30.20;66.60
2907;DHT22;1463;51.070;16.998;2022-08-04T10:48:53;30.20;67.20
2907;DHT22;1463;51.070;16.998;2022-08-04T10:51:26;30.20;68.10
2907;DHT22;1463;51.070;16.998;2022-08-04T10:53:56;30.30;68.70
2907;DHT22;1463;51.070;16.998;2022-08-04T10:56:27;30.20;67.80
2907;DHT22;1463;51.070;16.998;2022-08-04T10:58:59;30.30;67.60
2907;DHT22;1463;51.070;16.998;2022-08-04T11:01:30;30.40;65.80
2907;DHT22;1463;51.070;16.998;2022-08-04T11:03:59;30.40;67.30
2907;DHT22;1463;51.070;16.998;2022-08-04T11:06:27;30.30;67.70
2907;DHT22;1463;51.070;16.998;2022-08-04T11:08:54;30.30;67.50
2907;DHT22;1463;51.070;16.998;2022-08-04T11:11:24;30.30;67.20
2907;DHT22;1463;51.070;16.998;2022-08-04T11:13:58;30.40;66.50
2907;DHT22;1463;51.070;16.998;2022-08-04T11:16:26;30.50;66.20
2907;DHT22;1463;51.070;16.998;2022-08-04T11:19:00;30.50;67.20
2907;DHT22;1463;51.070;16.998;2022-08-04T11:21:34;30.70;64.70
2907;DHT22;1463;51.070;16.998;2022-08-04T11:24:03;30.70;64.90
2907;DHT22;1463;51.070;16.998;2022-08-04T11:26:37;30.70;66.00
2907;DHT22;1463;51.070;16.998;2022-08-04T11:29:08;30.60;66.50
2907;DHT22;1463;51.070;16.998;2022-08-04T11:31:40;30.70;66.90
2907;DHT22;1463;51.070;16.998;2022-08-04T11:34:14;30.70;66.50
2907;DHT22;1463;51.070;16.998;2022-08-04T11:36:45;30.70;67.80
2907;DHT22;1463;51.070;16.998;2022-08-04T11:39:17;30.80;65.70
2907;DHT22;1463;51.070;16.998;2022-08-04T11:41:48;30.90;64.70
2907;DHT22;1463;51.070;16.998;2022-08-04T11:44:22;31.00;64.60
2907;DHT22;1463;51.070;16.998;2022-08-04T11:46:51;31.10;64.20
2907;DHT22;1463;51.070;16.998;2022-08-04T11:49:25;31.20;65.50
2907;DHT22;1463;51.070;16.998;2022-08-04T11:51:52;31.00;65.90
2907;DHT22;1463;51.070;16.998;2022-08-04T11:54:21;31.00;63.60
2907;DHT22;1463;51.070;16.998;2022-08-04T11:56:48;31.20;64.30
2907;DHT22;1463;51.070;16.998;2022-08-04T11:59:16;31.30;65.10
2907;DHT22;1463;51.070;16.998;2022-08-04T12:01:49;31.20;66.00
2907;DHT22;1463;51.070;16.998;2022-08-04T12:04:26;31.20;64.50
2907;DHT22;1463;51.070;16.998;2022-08-04T12:06:55;31.30;64.00
2907;DHT22;1463;51.070;16.998;2022-08-04T12:09:28;31.40;63.30
2907;DHT22;1463;51.070;16.998;2022-08-04T12:12:01;31.40;63.80
2907;DHT22;1463;51.070;16.998;2022-08-04T12:14:37;31.40;62.80
2907;DHT22;1463;51.070;16.998;2022-08-04T12:17:07;31.50;64.20
2907;DHT22;1463;51.070;16.998;2022-08-04T12:19:39;31.50;61.50
2907;DHT22;1463;51.070;16.998;2022-08-04T12:22:10;31.50;63.70
2907;DHT22;1463;51.070;16.998;2022-08-04T12:24:41;31.50;62.70
2907;DHT22;1463;51.070;16.998;2022-08-04T12:27:11;31.40;63.20
2907;DHT22;1463;51.070;16.998;2022-08-04T12:29:40;31.30;65.10
2907;DHT22;1463;51.070;16.998;2022-08-04T12:32:12;31.20;64.60
2907;DHT22;1463;51.070;16.998;2022-08-04T12:34:46;31.30;62.50
2907;DHT22;1463;51.070;16.998;2022-08-04T12:37:17;31.40;62.20
2907;DHT22;1463;51.070;16.998;2022-08-04T12:39:47;31.50;61.60
2907;DHT22;1463;51.070;16.998;2022-08-04T12:42:18;31.50;64.70
2907;DHT22;1463;51.070;16.998;2022-08-04T12:44:49;31.40;65.10
2907;DHT22;1463;51.070;16.998;2022-08-04T12:47:22;31.40;63.00
2907;DHT22;1463;51.070;16.998;2022-08-04T12:49:51;31.40;63.80
2907;DHT22;1463;51.070;16.998;2022-08-04T12:52:19;31.50;61.60
2907;DHT22;1463;51.070;16.998;2022-08-04T12:54:47;31.70;61.80
2907;DHT22;1463;51.070;16.998;2022-08-04T12:57:17;31.70;62.10
2907;DHT22;1463;51.070;16.998;2022-08-04T12:59:46;31.70;60.60
2907;DHT22;1463;51.070;16.998;2022-08-04T13:02:15;31.80;60.90
2907;DHT22;1463;51.070;16.998;2022-08-04T13:04:42;31.80;61.90
2907;DHT22;1463;51.070;16.998;2022-08-04T13:07:12;31.70;62.80
2907;DHT22;1463;51.070;16.998;2022-08-04T13:09:41;31.40;62.30
2907;DHT22;1463;51.070;16.998;2022-08-04T13:12:10;31.40;61.80
2907;DHT22;1463;51.070;16.998;2022-08-04T13:14:39;31.60;59.50
2907;DHT22;1463;51.070;16.998;2022-08-04T13:17:08;31.80;59.30
2907;DHT22;1463;51.070;16.998;2022-08-04T13:19:36;31.80;58.50
2907;DHT22;1463;51.070;16.998;2022-08-04T13:22:03;32.00;58.40
2907;DHT22;1463;51.070;16.998;2022-08-04T13:24:32;32.00;59.30
2907;DHT22;1463;51.070;16.998;2022-08-04T13:27:01;31.90;58.60
2907;DHT22;1463;51.070;16.998;2022-08-04T13:29:31;31.70;59.80
2907;DHT22;1463;51.070;16.998;2022-08-04T13:32:00;31.70;58.60
2907;DHT22;1463;51.070;16.998;2022-08-04T13:34:28;31.80;57.50
2907;DHT22;1463;51.070;16.998;2022-08-04T13:36:55;31.90;57.60
2907;DHT22;1463;51.070;16.998;2022-08-04T13:39:24;32.00;58.90
2907;DHT22;1463;51.070;16.998;2022-08-04T13:41:54;31.80;57.80
2907;DHT22;1463;51.070;16.998;2022-08-04T13:44:27;31.90;57.80
2907;DHT22;1463;51.070;16.998;2022-08-04T13:46:54;31.80;58.60
2907;DHT22;1463;51.070;16.998;2022-08-04T13:49:23;31.70;58.90
2907;DHT22;1463;51.070;16.998;2022-08-04T13:51:52;31.60;59.80
2907;DHT22;1463;51.070;16.998;2022-08-04T13:54:20;31.60;58.60
2907;DHT22;1463;51.070;16.998;2022-08-04T13:56:49;31.60;58.60
2907;DHT22;1463;51.070;16.998;2022-08-04T13:59:18;31.70;59.70
2907;DHT22;1463;51.070;16.998;2022-08-04T14:01:55;31.70;59.20
2907;DHT22;1463;51.070;16.998;2022-08-04T14:04:25;31.50;61.10
2907;DHT22;1463;51.070;16.998;2022-08-04T14:06:52;31.50;58.00
2907;DHT22;1463;51.070;16.998;2022-08-04T14:09:22;31.40;57.60
2907;DHT22;1463;51.070;16.998;2022-08-04T14:11:50;31.40;57.50
2907;DHT22;1463;51.070;16.998;2022-08-04T14:14:20;31.40;59.20
2907;DHT22;1463;51.070;16.998;2022-08-04T14:16:54;31.40;58.20
2907;DHT22;1463;51.070;16.998;2022-08-04T14:19:21;31.40;59.60
2907;DHT22;1463;51.070;16.998;2022-08-04T14:21:48;31.40;58.60
2907;DHT22;1463;51.070;16.998;2022-08-04T14:24:21;31.60;58.30
2907;DHT22;1463;51.070;16.998;2022-08-04T14:26:49;31.50;59.30
2907;DHT22;1463;51.070;16.998;2022-08-04T14:29:16;31.50;58.10
2907;DHT22;1463;51.070;16.998;2022-08-04T14:31:48;31.40;58.30
2907;DHT22;1463;51.070;16.998;2022-08-04T14:34:24;31.40;58.70
2907;DHT22;1463;51.070;16.998;2022-08-04T14:36:52;31.50;58.60
2907;DHT22;1463;51.070;16.998;2022-08-04T14:42:01;31.40;57.50
2907;DHT22;1463;51.070;16.998;2022-08-04T14:44:28;31.40;57.80
2907;DHT22;1463;51.070;16.998;2022-08-04T14:46:57;31.40;59.10
2907;DHT22;1463;51.070;16.998;2022-08-04T14:49:24;31.30;59.70
2907;DHT22;1463;51.070;16.998;2022-08-04T14:51:52;31.30;60.00
2907;DHT22;1463;51.070;16.998;2022-08-04T14:54:25;31.30;59.50
2907;DHT22;1463;51.070;16.998;2022-08-04T14:56:53;31.30;58.50
2907;DHT22;1463;51.070;16.998;2022-08-04T14:59:22;31.40;57.50
2907;DHT22;1463;51.070;16.998;2022-08-04T15:01:50;31.30;58.00
2907;DHT22;1463;51.070;16.998;2022-08-04T15:04:19;31.20;58.40
2907;DHT22;1463;51.070;16.998;2022-08-04T15:06:47;31.20;58.30
2907;DHT22;1463;51.070;16.998;2022-08-04T15:09:15;31.20;57.90
2907;DHT22;1463;51.070;16.998;2022-08-04T15:11:42;31.20;58.40
2907;DHT22;1463;51.070;16.998;2022-08-04T15:14:09;31.20;57.70
2907;DHT22;1463;51.070;16.998;2022-08-04T15:16:37;31.20;58.90
2907;DHT22;1463;51.070;16.998;2022-08-04T15:19:04;31.10;57.60
2907;DHT22;1463;51.070;16.998;2022-08-04T15:21:34;31.20;57.20
2907;DHT22;1463;51.070;16.998;2022-08-04T15:24:02;31.20;57.60
2907;DHT22;1463;51.070;16.998;2022-08-04T15:26:31;31.20;57.00
2907;DHT22;1463;51.070;16.998;2022-08-04T15:29:01;31.20;57.80
2907;DHT22;1463;51.070;16.998;2022-08-04T15:31:31;31.10;57.10
2907;DHT22;1463;51.070;16.998;2022-08-04T15:34:03;31.20;57.50
2907;DHT22;1463;51.070;16.998;2022-08-04T15:36:37;31.20;57.60
2907;DHT22;1463;51.070;16.998;2022-08-04T15:39:05;31.20;57.70
2907;DHT22;1463;51.070;16.998;2022-08-04T15:41:37;31.20;57.60
2907;DHT22;1463;51.070;16.998;2022-08-04T15:44:16;31.20;58.00
2907;DHT22;1463;51.070;16.998;2022-08-04T15:49:32;31.10;58.20
2907;DHT22;1463;51.070;16.998;2022-08-04T15:52:01;31.10;58.60
2907;DHT22;1463;51.070;16.998;2022-08-04T15:54:29;31.10;59.10
2907;DHT22;1463;51.070;16.998;2022-08-04T15:56:56;31.10;59.40
2907;DHT22;1463;51.070;16.998;2022-08-04T16:04:57;31.10;60.60
2907;DHT22;1463;51.070;16.998;2022-08-04T16:07:55;31.00;61.00
2907;DHT22;1463;51.070;16.998;2022-08-04T16:10:35;31.00;61.40
2907;DHT22;1463;51.070;16.998;2022-08-04T16:13:04;31.00;61.50
2907;DHT22;1463;51.070;16.998;2022-08-04T16:15:38;31.00;61.50
2907;DHT22;1463;51.070;16.998;2022-08-04T16:18:05;31.00;61.30
2907;DHT22;1463;51.070;16.998;2022-08-04T16:20:34;31.00;61.60
2907;DHT22;1463;51.070;16.998;2022-08-04T16:23:06;30.90;61.80
2907;DHT22;1463;51.070;16.998;2022-08-04T16:25:42;30.90;61.30
2907;DHT22;1463;51.070;16.998;2022-08-04T16:30:58;30.80;61.70
2907;DHT22;1463;51.070;16.998;2022-08-04T16:33:26;30.80;61.30
2907;DHT22;1463;51.070;16.998;2022-08-04T16:35:54;30.80;61.10
2907;DHT22;1463;51.070;16.998;2022-08-04T16:38:23;30.80;61.40
2907;DHT22;1463;51.070;16.998;2022-08-04T16:40:53;30.80;61.80
2907;DHT22;1463;51.070;16.998;2022-08-04T16:43:22;30.80;62.20
2907;DHT22;1463;51.070;16.998;2022-08-04T16:45:53;30.70;61.90
2907;DHT22;1463;51.070;16.998;2022-08-04T16:48:23;30.70;62.00
2907;DHT22;1463;51.070;16.998;2022-08-04T16:53:41;30.70;62.80
2907;DHT22;1463;51.070;16.998;2022-08-04T16:56:08;30.70;62.50
2907;DHT22;1463;51.070;16.998;2022-08-04T16:58:36;30.70;63.00
2907;DHT22;1463;51.070;16.998;2022-08-04T17:01:07;30.60;63.30
2907;DHT22;1463;51.070;16.998;2022-08-04T17:03:35;30.60;63.20
2907;DHT22;1463;51.070;16.998;2022-08-04T17:06:05;30.60;63.30
2907;DHT22;1463;51.070;16.998;2022-08-04T17:08:33;30.50;63.40
2907;DHT22;1463;51.070;16.998;2022-08-04T17:11:04;30.50;63.70